Time;durP1;ratioP1;P1;durP2;ratioP2;P2;SDS_P1;SDS_P2;PMS_P1;PMS_P2;Temp;Humidity;BMP_temperature;BMP_pressure;BME280_temperature;BME280_humidity;BME280_pressure;Samples;Min_cycle;Max_cycle;Signal;HPM_P1;HPM_P2
2021/05/11 00:01:29;;;;;;;22.38;7.75;;;;;;;13.86;71.85;97987.72;5082502;28;20024;-65
2021/05/11 00:03:54;;;;;;;14.65;8.35;;;;;;;13.82;72.02;97990.47;5097293;28;20067;-66
2021/05/11 00:06:20;;;;;;;15.95;8.10;;;;;;;13.75;72.48;97982.16;5085075;28;20036;-65
2021/05/11 00:08:45;;;;;;;19.17;14.48;;;;;;;13.67;73.00;97981.63;5083057;28;20052;-65
2021/05/11 00:11:11;;;;;;;568.03;511.83;;;;;;;13.73;72.58;97977.09;5085726;28;20095;-65
2021/05/11 00:13:36;;;;;;;580.10;522.43;;;;;;;13.79;72.43;97975.97;5091325;28;20406;-65
2021/05/11 00:16:02;;;;;;;12.43;6.35;;;;;;;13.73;72.56;97974.50;5083463;28;20370;-65
2021/05/11 00:18:27;;;;;;;15.73;7.40;;;;;;;13.73;73.08;97971.94;5081944;28;20017;-65
2021/05/11 00:20:53;;;;;;;11.75;6.65;;;;;;;13.63;72.85;97962.06;5085375;28;20293;-64
2021/05/11 00:23:19;;;;;;;15.85;10.18;;;;;;;13.56;73.33;97968.38;5084217;28;20042;-65
2021/05/11 00:25:44;;;;;;;22.23;20.00;;;;;;;13.54;73.42;97965.00;5083584;28;20028;-65
2021/05/11 00:28:10;;;;;;;34.88;32.72;;;;;;;13.45;73.72;97970.56;5086465;28;20028;-65
2021/05/11 00:30:35;;;;;;;19.80;18.33;;;;;;;13.43;74.08;97980.91;5084501;28;20024;-65
2021/05/11 00:33:01;;;;;;;71.22;67.35;;;;;;;13.44;73.83;97971.47;5091313;28;20020;-65
2021/05/11 00:35:26;;;;;;;92.93;87.82;;;;;;;13.33;74.49;97971.88;5084491;28;20061;-64
2021/05/11 00:37:51;;;;;;;264.00;250.20;;;;;;;13.31;74.63;97972.84;5084900;28;20078;-65
2021/05/11 00:40:17;;;;;;;71.90;68.20;;;;;;;13.21;74.99;97973.22;5082439;28;20277;-64
2021/05/11 00:42:43;;;;;;;136.23;129.98;;;;;;;13.17;75.38;97975.97;5084845;28;20028;-64
2021/05/11 00:45:08;;;;;;;227.10;216.45;;;;;;;13.17;75.54;97976.81;5085599;28;20115;-64
2021/05/11 00:47:34;;;;;;;151.35;144.30;;;;;;;13.16;75.09;97974.28;5081137;28;20024;-63
2021/05/11 00:49:59;;;;;;;32.75;30.70;;;;;;;13.12;75.66;97973.59;5084954;28;20032;-64
2021/05/11 00:52:26;;;;;;;63.88;60.70;;;;;;;13.15;75.44;97973.44;5082992;28;20369;-64
2021/05/11 00:54:51;;;;;;;24.40;22.52;;;;;;;13.15;75.60;97967.50;5084312;28;20055;-64
2021/05/11 00:57:17;;;;;;;191.30;182.27;;;;;;;13.06;75.50;97967.81;5081083;28;20259;-64
2021/05/11 00:59:43;;;;;;;236.10;224.38;;;;;;;13.01;76.22;97965.44;5081161;28;20024;-64
2021/05/11 01:02:09;;;;;;;219.95;209.70;;;;;;;13.02;76.01;97967.13;5080444;28;20385;-64
2021/05/11 01:04:37;;;;;;;316.73;300.63;;;;;;;12.99;76.13;97964.63;5081340;28;20032;-63
2021/05/11 01:07:03;;;;;;;359.23;340.38;;;;;;;12.90;76.52;97964.19;5082634;28;20040;-64
2021/05/11 01:09:30;;;;;;;418.05;394.58;;;;;;;12.95;75.90;97962.25;5080571;28;20714;-64
2021/05/11 01:11:56;;;;;;;511.42;480.77;;;;;;;12.91;76.17;97960.69;5065829;28;20028;-64
2021/05/11 01:14:27;;;;;;;558.43;521.40;;;;;;;12.99;75.76;97956.91;5080376;28;20048;-64
2021/05/11 01:16:56;;;;;;;527.37;493.97;;;;;;;13.02;75.74;97967.13;5080518;28;20028;-64
2021/05/11 01:24:32;;;;;;;570.20;528.40;;;;;;;12.75;76.40;97953.56;5084007;28;20337;-64
2021/05/11 01:27:08;;;;;;;589.13;539.67;;;;;;;12.70;76.43;97955.47;5078973;28;20074;-64
2021/05/11 01:48:54;;;;;;;549.40;492.30;;;;;;;12.46;77.46;97946.13;5063195;28;20195;-64
2021/05/11 01:54:08;;;;;;;558.23;501.17;;;;;;;12.52;77.20;97933.03;5062258;28;20029;-64
2021/05/11 02:23:03;;;;;;;543.67;487.80;;;;;;;12.03;78.44;97926.31;5064417;28;20364;-63
2021/05/11 02:25:29;;;;;;;549.80;493.87;;;;;;;11.98;77.89;97925.63;5069921;28;20035;-63
2021/05/11 02:27:55;;;;;;;585.50;528.20;;;;;;;11.88;77.88;97909.69;5081048;28;20074;-64
2021/05/11 02:30:21;;;;;;;588.67;531.37;;;;;;;11.87;77.77;97917.47;5087157;28;20102;-65
2021/05/11 02:32:46;;;;;;;525.50;469.70;;;;;;;11.80;78.08;97927.13;5086277;28;20039;-65
2021/05/11 02:35:14;;;;;;;532.60;476.10;;;;;;;11.76;77.75;97917.84;5086119;28;20036;-64
2021/05/11 02:37:40;;;;;;;536.47;481.27;;;;;;;11.69;78.49;97920.66;5085001;28;20032;-64
2021/05/11 02:40:09;;;;;;;538.13;482.40;;;;;;;11.61;78.45;97914.94;5081217;28;20119;-66
2021/05/11 02:42:35;;;;;;;533.70;478.30;;;;;;;11.54;78.67;97905.78;5084358;28;20031;-66
2021/05/11 02:45:02;;;;;;;516.33;460.43;;;;;;;11.50;78.63;97911.94;5086550;28;20118;-66
2021/05/11 02:47:27;;;;;;;519.10;467.07;;;;;;;11.49;78.90;97912.81;5082995;28;20477;-67
2021/05/11 02:49:53;;;;;;;504.43;451.67;;;;;;;11.42;79.46;97914.72;5082592;28;20392;-66
2021/05/11 02:52:19;;;;;;;503.13;451.77;;;;;;;11.40;78.89;97916.53;5082448;28;20029;-65
2021/05/11 02:54:44;;;;;;;512.97;461.77;;;;;;;11.37;79.27;97919.19;5089182;28;20289;-65
2021/05/11 02:57:10;;;;;;;523.63;472.37;;;;;;;11.34;78.46;97909.84;5086915;28;20059;-65
2021/05/11 02:59:35;;;;;;;501.17;447.13;;;;;;;11.40;79.29;97914.81;5084041;28;20125;-64
2021/05/11 03:02:02;;;;;;;493.70;441.47;;;;;;;11.35;78.93;97906.41;5083966;28;20048;-65
2021/05/11 03:04:27;;;;;;;495.97;440.80;;;;;;;11.37;78.69;97912.31;5085424;28;20064;-65
2021/05/11 03:06:57;;;;;;;500.50;450.40;;;;;;;11.31;79.27;97907.41;5082155;28;20347;-64
2021/05/11 03:09:27;;;;;;;543.33;491.33;;;;;;;11.30;79.26;97910.00;5085542;28;20060;-65
2021/05/11 03:11:54;;;;;;;486.00;438.27;;;;;;;11.12;79.52;97897.81;5080669;28;20070;-66
2021/05/11 03:14:19;;;;;;;497.00;448.87;;;;;;;11.14;79.95;97912.25;5093984;28;20068;-64
2021/05/11 03:16:46;;;;;;;485.23;435.30;;;;;;;11.13;80.43;97908.00;5083165;28;20079;-65
2021/05/11 03:19:12;;;;;;;468.20;418.43;;;;;;;11.07;80.01;97902.25;5086170;28;20423;-65
2021/05/11 03:21:37;;;;;;;476.10;426.13;;;;;;;11.18;79.49;97911.25;5084965;28;20032;-66
2021/05/11 03:24:04;;;;;;;476.80;429.17;;;;;;;11.18;79.56;97903.56;5082920;28;20036;-66
2021/05/11 03:26:29;;;;;;;475.00;428.00;;;;;;;11.15;79.87;97905.41;5083271;28;20029;-65
2021/05/11 03:28:54;;;;;;;480.90;431.90;;;;;;;11.10;79.93;97904.72;5087209;28;20416;-65
2021/05/11 03:31:20;;;;;;;482.37;435.70;;;;;;;11.16;79.41;97904.53;5088877;28;20054;-64
2021/05/11 03:33:46;;;;;;;475.93;428.23;;;;;;;11.06;79.38;97898.00;5084203;28;20023;-65
2021/05/11 03:36:11;;;;;;;472.83;424.87;;;;;;;11.05;79.56;97901.44;5085107;28;20106;-64
2021/05/11 03:38:37;;;;;;;483.20;434.80;;;;;;;10.99;80.13;97905.88;5082051;28;20425;-65
2021/05/11 03:41:03;;;;;;;467.83;421.80;;;;;;;10.98;79.93;97911.09;5079199;28;20298;-64
2021/05/11 03:43:35;;;;;;;489.57;439.63;;;;;;;10.97;79.48;97902.53;5083424;28;20025;-65
2021/05/11 03:46:06;;;;;;;491.23;441.60;;;;;;;10.97;80.14;97907.69;5081935;28;20035;-64
2021/05/11 03:48:31;;;;;;;482.53;432.87;;;;;;;10.99;80.21;97903.31;5082605;28;20024;-64
2021/05/11 03:50:57;;;;;;;476.13;423.77;;;;;;;10.99;79.95;97897.34;5082830;28;20039;-64
2021/05/11 03:53:22;;;;;;;475.60;425.00;;;;;;;11.12;79.50;97905.50;5084798;28;20036;-65
2021/05/11 03:55:48;;;;;;;495.83;443.53;;;;;;;11.20;79.29;97894.06;5085203;28;20360;-64
2021/05/11 03:58:14;;;;;;;493.67;429.87;;;;;;;11.31;78.81;97896.31;5085347;28;20031;-66
2021/05/11 04:00:40;;;;;;;495.70;441.07;;;;;;;11.42;78.51;97901.91;5084029;28;20302;-66
2021/05/11 04:03:05;;;;;;;514.47;447.47;;;;;;;11.54;78.23;97893.81;5086718;28;20068;-66
2021/05/11 04:05:32;;;;;;;517.30;453.07;;;;;;;11.71;77.50;97894.03;5084082;28;20035;-66
2021/05/11 04:07:59;;;;;;;507.70;442.70;;;;;;;12.00;76.21;97902.47;5080710;28;20704;-65
2021/05/11 04:10:33;;;;;;;513.03;443.40;;;;;;;12.17;75.55;97903.53;5081386;28;20028;-65
2021/05/11 04:18:27;;;;;;;531.57;475.07;;;;;;;12.85;73.57;97897.47;5082978;28;20047;-65
2021/05/11 04:20:52;;;;;;;540.20;482.17;;;;;;;13.09;73.13;97887.91;5081254;28;20059;-65
2021/05/11 04:23:18;;;;;;;543.57;486.00;;;;;;;13.29;71.98;97893.09;5083114;28;20107;-65
2021/05/11 04:25:43;;;;;;;560.00;502.90;;;;;;;13.43;71.10;97901.09;5081273;28;20146;-65
2021/05/11 04:28:08;;;;;;;575.80;519.30;;;;;;;13.51;70.74;97899.03;5081307;28;20368;-66
2021/05/11 04:30:34;;;;;;;576.07;519.50;;;;;;;13.67;70.85;97900.03;5083952;28;20047;-66
2021/05/11 04:32:59;;;;;;;583.60;525.13;;;;;;;13.76;70.00;97900.56;5079554;28;20067;-65
2021/05/11 04:35:25;;;;;;;590.30;533.87;;;;;;;13.91;69.62;97898.16;5079732;28;20099;-65
2021/05/11 04:37:50;;;;;;;603.77;545.97;;;;;;;14.03;69.09;97900.19;5082654;28;20051;-66
2021/05/11 04:40:16;;;;;;;603.67;549.17;;;;;;;13.97;69.03;97904.75;5086481;28;20200;-65
2021/05/11 04:42:43;;;;;;;614.50;559.13;;;;;;;14.06;67.93;97894.06;5079906;28;20036;-65
2021/05/11 04:45:10;;;;;;;610.30;553.27;;;;;;;14.21;68.14;97897.69;5084206;28;20032;-65
2021/05/11 04:47:50;;;;;;;622.87;566.03;;;;;;;14.12;68.29;97896.38;5082632;28;20020;-65
2021/05/11 04:50:23;;;;;;;626.63;570.03;;;;;;;14.19;68.82;97898.59;5082871;28;20055;-66
2021/05/11 04:52:49;;;;;;;626.07;567.50;;;;;;;14.14;68.74;97895.38;5079306;28;20028;-65
2021/05/11 04:55:16;;;;;;;629.87;571.00;;;;;;;14.28;69.27;97901.66;5084088;28;20024;-65
2021/05/11 04:57:42;;;;;;;647.80;589.77;;;;;;;14.49;68.29;97898.97;5079221;28;20573;-65
2021/05/11 05:00:09;;;;;;;636.93;578.70;;;;;;;14.71;67.42;97901.38;5081998;28;20038;-65
2021/05/11 05:02:37;;;;;;;657.60;600.67;;;;;;;14.86;67.94;97902.38;5081137;28;20389;-66
2021/05/11 05:05:03;;;;;;;653.07;594.67;;;;;;;15.04;66.65;97904.09;5080877;28;20028;-65
2021/05/11 05:07:28;;;;;;;657.03;599.43;;;;;;;15.20;66.23;97915.34;5082901;28;20423;-65
2021/05/11 05:09:54;;;;;;;682.47;622.97;;;;;;;15.38;65.98;97911.84;5083446;28;20051;-65
2021/05/11 05:12:19;;;;;;;668.75;611.38;;;;;;;15.58;65.39;97910.88;5083070;28;20035;-66
2021/05/11 05:14:45;;;;;;;690.72;632.90;;;;;;;15.80;64.60;97910.63;5091451;28;20032;-65
2021/05/11 05:17:10;;;;;;;703.05;644.30;;;;;;;16.01;63.94;97917.28;5081044;28;20032;-65
2021/05/11 05:19:36;;;;;;;710.33;650.22;;;;;;;16.20;64.35;97910.22;5083038;28;20032;-66
2021/05/11 05:22:02;;;;;;;715.80;656.45;;;;;;;16.42;63.55;97905.56;5083600;28;20256;-66
2021/05/11 05:24:33;;;;;;;727.15;667.05;;;;;;;16.63;62.05;97903.59;5082954;28;20320;-66
2021/05/11 05:27:03;;;;;;;731.10;669.88;;;;;;;16.83;61.38;97895.56;5081568;28;20378;-66
2021/05/11 05:29:29;;;;;;;743.83;683.08;;;;;;;17.03;60.48;97907.38;5082598;28;20038;-64
2021/05/11 05:31:55;;;;;;;754.50;694.65;;;;;;;17.21;60.20;97906.34;5081400;28;20035;-64
2021/05/11 05:34:20;;;;;;;757.58;696.38;;;;;;;17.25;58.56;97900.06;5082526;28;20017;-65
2021/05/11 05:36:45;;;;;;;772.58;712.60;;;;;;;17.42;59.05;97893.91;5078622;28;20374;-64
2021/05/11 05:39:11;;;;;;;776.67;716.17;;;;;;;17.63;58.13;97895.28;5079245;28;20082;-64
2021/05/11 05:41:36;;;;;;;782.78;720.65;;;;;;;17.69;57.42;97881.13;5085033;28;20016;-64
2021/05/11 05:44:02;;;;;;;788.15;728.08;;;;;;;17.86;56.64;97873.16;5080405;28;20028;-66
2021/05/11 05:46:28;;;;;;;787.20;726.45;;;;;;;18.00;56.10;97875.75;5083942;28;20032;-64
2021/05/11 05:48:53;;;;;;;808.55;746.97;;;;;;;18.15;56.46;97867.03;5083272;28;20060;-63
2021/05/11 05:51:20;;;;;;;811.55;749.33;;;;;;;18.32;56.28;97872.94;5080836;28;20032;-65
2021/05/11 05:53:45;;;;;;;810.60;749.40;;;;;;;18.41;56.62;97875.81;5077834;28;20024;-64
2021/05/11 05:56:15;;;;;;;822.28;762.35;;;;;;;18.56;56.75;97884.41;5082985;28;20090;-63
2021/05/11 05:58:41;;;;;;;823.92;763.53;;;;;;;18.78;55.67;97886.47;5082786;28;20278;-63
2021/05/11 06:01:08;;;;;;;839.13;777.67;;;;;;;18.91;55.14;97890.78;5081229;28;20028;-63
2021/05/11 06:06:10;;;;;;;840.17;780.13;;;;;;;19.15;54.47;97886.59;5088156;28;20020;-64
2021/05/11 06:08:38;;;;;;;850.83;788.95;;;;;;;19.38;53.99;97889.47;5087758;28;20048;-64
2021/05/11 06:11:25;;;;;;;856.85;795.92;;;;;;;19.52;53.65;97887.63;5084608;28;20051;-64
2021/05/11 06:19:03;;;;;;;867.40;806.95;;;;;;;19.98;51.14;97871.50;5082885;28;20036;-64
2021/05/11 06:21:28;;;;;;;883.72;822.40;;;;;;;20.15;50.94;97873.78;5083060;28;20032;-64
2021/05/11 06:23:54;;;;;;;878.25;815.83;;;;;;;20.32;50.97;97883.03;5085373;28;20132;-65
2021/05/11 06:26:20;;;;;;;899.97;838.13;;;;;;;20.46;50.39;97877.69;5085249;28;20020;-64
2021/05/11 06:28:45;;;;;;;891.05;830.42;;;;;;;20.57;50.08;97877.75;5086689;28;20036;-64
2021/05/11 06:31:11;;;;;;;896.10;835.95;;;;;;;20.74;49.79;97885.22;5083658;28;20028;-64
2021/05/11 06:33:37;;;;;;;908.72;848.28;;;;;;;20.92;49.41;97883.00;5085683;28;20032;-65
2021/05/11 06:36:03;;;;;;;908.35;847.17;;;;;;;21.10;48.43;97881.69;5084009;28;20329;-65
2021/05/11 06:38:30;;;;;;;920.30;859.50;;;;;;;21.27;47.84;97877.84;5086775;28;20040;-65
2021/05/11 06:40:55;;;;;;;922.75;860.63;;;;;;;21.46;45.94;97887.75;5085173;28;20297;-65
2021/05/11 06:43:26;;;;;;;936.00;873.35;;;;;;;21.61;46.31;97886.59;5084874;28;20028;-65
2021/05/11 06:48:27;;;;;;;940.22;878.00;;;;;;;22.05;44.42;97885.88;5083699;28;20036;-65
2021/05/11 06:53:40;;;;;;;946.17;883.35;;;;;;;22.53;43.43;97874.16;5084874;28;20032;-62
2021/05/11 06:56:07;;;;;;;959.22;896.30;;;;;;;22.74;41.49;97871.69;5089262;28;20039;-64
2021/05/11 06:58:32;;;;;;;962.60;899.08;;;;;;;22.97;41.41;97872.41;5084142;28;20036;-64
2021/05/11 07:00:58;;;;;;;958.75;895.53;;;;;;;23.15;40.01;97863.09;5085055;28;20033;-63
2021/05/11 07:03:23;;;;;;;972.67;908.22;;;;;;;23.24;38.08;97864.94;5086201;28;20542;-62
2021/05/11 07:05:51;;;;;;;971.17;907.30;;;;;;;23.53;38.88;97859.94;5083931;28;20028;-62
2021/05/11 07:10:52;;;;;;;987.60;924.03;;;;;;;23.63;37.35;97855.59;5082371;28;20024;-64
2021/05/11 07:13:18;;;;;;;980.85;917.40;;;;;;;23.90;36.79;97866.31;5085479;28;20023;-64
2021/05/11 07:15:45;;;;;;;999.47;935.28;;;;;;;24.04;36.53;97865.16;5084555;28;20366;-62
2021/05/11 07:18:25;;;;;;;995.40;931.05;;;;;;;24.30;36.69;97868.19;5086480;28;20024;-64
2021/05/11 07:20:59;;;;;;;998.72;934.88;;;;;;;24.38;36.19;97860.47;5086444;28;20028;-63
2021/05/11 07:23:25;;;;;;;1005.42;941.25;;;;;;;24.44;35.36;97860.75;5085621;28;20046;-63
2021/05/11 07:28:39;;;;;;;1021.03;956.25;;;;;;;24.66;35.78;97870.19;5084172;28;20306;-63
2021/05/11 07:31:07;;;;;;;1017.60;953.75;;;;;;;24.84;35.01;97854.63;5085405;28;20023;-64
2021/05/11 07:33:54;;;;;;;1010.33;946.60;;;;;;;24.93;34.88;97856.47;5084607;28;20043;-64
2021/05/11 07:36:18;;;;;;;1019.75;955.22;;;;;;;24.86;34.64;97857.97;5088153;28;20040;-63
2021/05/11 07:38:45;;;;;;;1025.93;960.97;;;;;;;24.90;34.68;97865.44;5081867;28;20028;-63
2021/05/11 07:41:13;;;;;;;1016.00;952.10;;;;;;;24.93;34.83;97854.66;5083393;28;20021;-63
2021/05/11 07:43:40;;;;;;;1026.68;962.42;;;;;;;25.15;33.75;97858.81;5084717;28;20020;-63
2021/05/11 07:49:11;;;;;;;1027.03;963.08;;;;;;;25.59;33.77;97844.25;5086079;28;20024;-63
2021/05/11 08:05:31;;;;;;;1035.30;970.85;;;;;;;25.69;35.02;97834.56;5086905;28;20035;-63
2021/05/11 08:16:03;;;;;;;1039.80;975.33;;;;;;;25.92;31.73;97835.06;5084469;28;20039;-62
2021/05/11 08:29:11;;;;;;;1057.55;991.63;;;;;;;26.54;31.54;97841.41;5085992;28;20086;-63
2021/05/11 08:31:37;;;;;;;1054.25;988.95;;;;;;;26.43;31.38;97849.50;5080958;28;20288;-63
2021/05/11 08:34:02;;;;;;;1059.00;993.65;;;;;;;26.65;30.74;97844.63;5082799;28;20104;-65
2021/05/11 08:36:28;;;;;;;1059.45;994.55;;;;;;;26.68;31.09;97854.88;5085756;28;20057;-65
2021/05/11 08:38:56;;;;;;;1060.30;994.85;;;;;;;26.79;30.78;97843.28;5082800;28;20024;-65
2021/05/11 08:41:22;;;;;;;1055.32;990.15;;;;;;;26.92;30.69;97837.69;5081552;28;20099;-65
2021/05/11 08:43:48;;;;;;;1075.20;999.90;;;;;;;26.98;30.86;97842.38;5083343;28;20119;-66
2021/05/11 08:46:14;;;;;;;1060.72;995.42;;;;;;;27.11;30.61;97829.66;5081123;28;20065;-64
2021/05/11 08:48:40;;;;;;;1066.57;998.47;;;;;;;27.21;30.66;97833.00;5083392;28;20097;-65
2021/05/11 09:30:09;;;;;;;1052.28;987.95;;;;;;;27.48;30.63;97850.53;5079127;28;20020;-63
2021/05/11 09:45:07;;;;;;;1065.28;997.45;;;;;;;27.70;30.04;97842.94;5082126;28;20120;-63
2021/05/11 10:49:42;;;;;;;1031.13;967.00;;;;;;;28.67;28.79;97825.88;5081774;28;20028;-63
2021/05/11 10:52:27;;;;;;;1026.53;963.17;;;;;;;28.71;28.17;97817.53;5085893;28;20028;-63
2021/05/11 10:57:34;;;;;;;1008.20;945.97;;;;;;;28.63;28.15;97819.28;5086139;28;20119;-63
2021/05/11 11:00:43;;;;;;;992.85;931.35;;;;;;;28.69;28.00;97823.91;5084353;28;20071;-63
2021/05/11 11:03:30;;;;;;;1002.85;940.78;;;;;;;28.96;28.27;97810.44;5085005;28;20040;-64
2021/05/11 11:05:57;;;;;;;985.70;923.95;;;;;;;28.89;27.75;97804.19;5086007;28;20109;-63
2021/05/11 11:08:34;;;;;;;984.78;923.58;;;;;;;29.08;28.14;97803.03;5086470;28;20060;-63
2021/05/11 11:11:17;;;;;;;990.97;929.05;;;;;;;29.22;28.46;97797.91;5085826;28;20042;-63
2021/05/11 11:13:45;;;;;;;989.33;927.75;;;;;;;29.01;28.09;97803.69;5084627;28;20042;-63
2021/05/11 11:16:11;;;;;;;963.97;903.50;;;;;;;29.13;27.76;97806.00;5081764;28;20062;-63
2021/05/11 11:18:38;;;;;;;976.08;914.75;;;;;;;29.19;28.01;97806.16;5083212;28;20040;-63
2021/05/11 11:23:54;;;;;;;967.25;906.85;;;;;;;29.30;26.93;97805.03;5086207;28;20062;-63
2021/05/11 11:26:25;;;;;;;975.20;913.72;;;;;;;29.26;27.82;97801.03;5083746;28;20441;-63
2021/05/11 11:29:05;;;;;;;984.90;922.88;;;;;;;29.63;27.01;97803.97;5092675;28;20367;-62
2021/05/11 11:31:33;;;;;;;961.08;900.58;;;;;;;29.53;26.52;97798.06;5083782;28;20116;-63
2021/05/11 11:34:24;;;;;;;961.50;900.47;;;;;;;29.65;26.43;97801.19;5085783;28;20396;-63
2021/05/11 11:37:00;;;;;;;980.80;918.70;;;;;;;29.65;26.89;97801.19;5093743;28;20036;-64
2021/05/11 11:39:28;;;;;;;948.47;888.28;;;;;;;29.71;27.03;97797.84;5086701;28;20029;-65
2021/05/11 11:41:55;;;;;;;927.13;868.30;;;;;;;29.69;27.70;97789.28;5080702;28;20024;-65
2021/05/11 11:44:26;;;;;;;924.17;864.60;;;;;;;30.04;26.73;97798.59;5085216;28;20024;-64
2021/05/11 11:46:57;;;;;;;895.97;838.47;;;;;;;29.72;26.89;97787.09;5088484;28;20111;-63
2021/05/11 11:49:27;;;;;;;878.75;822.65;;;;;;;29.87;27.00;97784.63;5085907;28;20074;-63
2021/05/11 11:51:58;;;;;;;907.53;848.15;;;;;;;29.68;27.60;97779.69;5084912;28;20312;-63
2021/05/11 11:59:54;;;;;;;900.80;843.05;;;;;;;29.03;27.65;97764.75;5083420;28;19916;-63
2021/05/11 12:02:19;;;;;;;918.30;859.42;;;;;;;28.86;26.48;97768.38;5083415;28;20043;-62
2021/05/11 12:04:47;;;;;;;932.00;872.65;;;;;;;28.84;26.89;97762.44;5084137;28;20107;-65
2021/05/11 12:07:15;;;;;;;945.97;885.88;;;;;;;28.65;27.54;97753.97;5084203;28;20082;-65
2021/05/11 12:09:41;;;;;;;925.97;867.08;;;;;;;28.47;27.24;97752.34;5084712;28;20048;-64
2021/05/11 12:12:10;;;;;;;933.28;874.33;;;;;;;28.49;26.83;97755.63;5086193;28;20055;-65
2021/05/11 12:14:38;;;;;;;928.45;869.50;;;;;;;28.56;26.95;97747.88;5084490;28;20024;-63
2021/05/11 12:17:03;;;;;;;927.45;868.65;;;;;;;28.91;27.16;97750.22;5085689;28;20051;-62
2021/05/11 12:19:31;;;;;;;939.95;880.08;;;;;;;28.84;26.85;97743.97;5084317;28;20074;-62
2021/05/11 12:22:04;;;;;;;903.88;846.38;;;;;;;29.09;26.84;97742.13;5083839;28;20112;-64
2021/05/11 12:24:35;;;;;;;898.17;840.80;;;;;;;29.34;25.97;97735.03;5094145;28;20025;-64
2021/05/11 12:27:14;;;;;;;880.42;824.25;;;;;;;29.44;25.79;97736.50;5088204;28;20042;-65
2021/05/11 12:30:06;;;;;;;863.17;808.28;;;;;;;29.71;25.86;97729.94;5084097;28;20285;-62
2021/05/11 12:32:35;;;;;;;850.40;795.20;;;;;;;30.00;25.05;97723.28;5084188;28;20277;-63
2021/05/11 12:35:12;;;;;;;849.75;795.15;;;;;;;30.40;24.59;97717.72;5086331;28;20036;-62
2021/05/11 12:37:49;;;;;;;847.22;792.38;;;;;;;30.50;24.46;97718.34;5083166;28;20024;-62
2021/05/11 12:40:30;;;;;;;852.20;797.13;;;;;;;30.36;25.27;97721.72;5080546;28;20108;-62
2021/05/11 12:42:58;;;;;;;852.38;797.55;;;;;;;30.37;24.47;97724.19;5084263;28;20321;-64
2021/05/11 12:45:24;;;;;;;846.65;792.10;;;;;;;29.91;25.34;97714.56;5084198;28;20431;-63
2021/05/11 12:48:00;;;;;;;843.78;788.60;;;;;;;30.07;25.24;97711.81;5080574;28;20037;-63
2021/05/11 12:50:29;;;;;;;821.38;768.00;;;;;;;30.45;24.88;97709.28;5081798;28;20133;-64
2021/05/11 12:53:01;;;;;;;837.72;782.78;;;;;;;30.58;24.67;97705.06;5086779;28;20035;-63
2021/05/11 12:56:11;;;;;;;808.22;755.67;;;;;;;30.76;25.25;97700.28;5086415;28;20381;-65
2021/05/11 12:59:01;;;;;;;807.78;755.20;;;;;;;31.09;24.02;97694.72;5083811;28;20320;-65
2021/05/11 13:25:35;;;;;;;794.78;742.03;;;;;;;32.18;23.21;97666.38;5084478;28;20053;-65
2021/05/11 13:28:12;;;;;;;801.83;748.80;;;;;;;31.93;23.71;97664.25;5087182;28;20028;-65
2021/05/11 13:30:53;;;;;;;801.88;749.03;;;;;;;31.55;23.08;97659.13;5083596;28;20046;-64
2021/05/11 13:35:46;;;;;;;836.95;781.60;;;;;;;31.17;24.42;97662.84;5081178;28;20067;-64
2021/05/11 13:38:12;;;;;;;819.40;765.30;;;;;;;31.39;23.25;97653.97;5081661;28;20060;-65
2021/05/11 13:40:37;;;;;;;845.83;790.00;;;;;;;30.68;24.56;97652.69;5081381;28;20342;-65
2021/05/11 13:43:03;;;;;;;849.88;793.97;;;;;;;30.51;24.42;97637.94;5081054;28;20097;-64
2021/05/11 13:45:29;;;;;;;840.67;785.63;;;;;;;30.48;24.90;97648.06;5081408;28;20025;-64
2021/05/11 13:48:06;;;;;;;839.08;784.10;;;;;;;30.20;25.11;97634.56;5082516;28;20029;-66
2021/05/11 13:50:56;;;;;;;864.22;807.85;;;;;;;30.30;24.89;97633.31;5081327;28;20024;-65
2021/05/11 13:53:20;;;;;;;846.42;791.25;;;;;;;30.27;25.17;97644.25;5081311;28;20040;-65
2021/05/11 14:03:39;;;;;;;848.72;793.58;;;;;;;30.26;25.05;97624.06;5082185;28;20063;-65
2021/05/11 14:06:04;;;;;;;831.97;778.03;;;;;;;30.04;25.51;97626.75;5084087;28;20040;-64
2021/05/11 14:08:29;;;;;;;839.05;784.42;;;;;;;30.31;24.71;97623.53;5088342;28;20097;-64
2021/05/11 14:10:55;;;;;;;830.03;776.33;;;;;;;30.02;25.99;97615.50;5089112;28;20036;-64
2021/05/11 14:13:20;;;;;;;842.67;787.88;;;;;;;30.16;25.80;97617.41;5082892;28;20016;-65
2021/05/11 14:15:46;;;;;;;869.72;813.30;;;;;;;30.11;25.34;97617.09;5083291;28;20063;-64
2021/05/11 14:18:11;;;;;;;850.15;795.28;;;;;;;30.15;25.39;97606.00;5078957;28;20026;-65
2021/05/11 14:20:36;;;;;;;836.00;781.88;;;;;;;30.06;25.62;97608.88;5082458;28;20020;-64
2021/05/11 14:23:02;;;;;;;839.30;785.00;;;;;;;30.03;25.92;97625.91;5079386;28;20173;-65
2021/05/11 14:25:27;;;;;;;825.50;771.90;;;;;;;30.06;26.12;97599.13;5085374;28;20083;-65
2021/05/11 14:27:53;;;;;;;818.95;766.05;;;;;;;30.23;25.75;97611.22;5086577;28;20339;-65
2021/05/11 14:30:19;;;;;;;832.03;778.25;;;;;;;30.48;25.67;97609.22;5087322;28;20024;-65
2021/05/11 14:32:44;;;;;;;816.45;763.45;;;;;;;30.72;25.51;97618.78;5085388;28;20028;-65
2021/05/11 14:35:10;;;;;;;819.20;766.20;;;;;;;30.73;25.21;97615.09;5083455;28;20069;-65
2021/05/11 14:37:35;;;;;;;814.95;762.08;;;;;;;30.57;26.55;97608.16;5083480;28;20024;-65
2021/05/11 14:40:01;;;;;;;808.10;755.45;;;;;;;30.92;26.53;97597.88;5087583;28;20413;-64
2021/05/11 14:42:26;;;;;;;789.08;737.90;;;;;;;30.72;25.37;97614.28;5087464;28;20060;-64
2021/05/11 14:44:54;;;;;;;787.72;736.42;;;;;;;30.66;25.64;97609.72;5083830;28;20032;-65
2021/05/11 14:47:19;;;;;;;777.97;727.28;;;;;;;30.06;26.65;97609.69;5086770;28;20028;-64
2021/05/11 14:49:45;;;;;;;795.20;743.45;;;;;;;30.05;27.48;97608.03;5084107;28;20078;-65
2021/05/11 14:52:13;;;;;;;773.90;723.72;;;;;;;30.48;26.73;97611.03;5080949;28;20028;-65
2021/05/11 14:54:39;;;;;;;780.33;729.75;;;;;;;30.84;25.75;97620.78;5084205;28;20365;-66
2021/05/11 14:57:04;;;;;;;782.53;731.90;;;;;;;30.64;26.11;97608.25;5083743;28;20293;-64
2021/05/11 14:59:30;;;;;;;780.63;729.63;;;;;;;30.54;26.24;97608.50;5086657;28;20058;-65
2021/05/11 15:01:55;;;;;;;798.60;746.90;;;;;;;30.48;26.85;97609.22;5083513;28;20378;-65
2021/05/11 15:04:21;;;;;;;802.75;750.60;;;;;;;30.14;27.11;97606.16;5087061;28;20024;-64
2021/05/11 15:06:46;;;;;;;813.50;760.97;;;;;;;30.20;27.19;97605.47;5089962;28;20074;-65
2021/05/11 15:09:12;;;;;;;825.80;772.10;;;;;;;30.68;26.29;97615.63;5084235;28;20044;-64
2021/05/11 15:11:38;;;;;;;817.33;764.08;;;;;;;31.51;25.60;97603.97;5085058;28;20028;-64
2021/05/11 15:14:04;;;;;;;799.20;747.42;;;;;;;31.45;25.62;97605.53;5083939;28;20437;-65
2021/05/11 15:16:34;;;;;;;801.10;749.22;;;;;;;31.79;25.30;97596.97;5082262;28;20816;-64
2021/05/11 15:18:59;;;;;;;800.15;748.03;;;;;;;32.61;24.49;97614.13;5086689;28;20024;-65
2021/05/11 15:21:25;;;;;;;800.72;748.30;;;;;;;32.09;24.49;97606.50;5083365;28;20024;-64
2021/05/11 15:23:51;;;;;;;806.67;754.03;;;;;;;31.96;24.54;97603.69;5086097;28;20033;-64
2021/05/11 15:26:17;;;;;;;796.47;744.33;;;;;;;32.40;24.37;97600.88;5085888;28;20028;-65
2021/05/11 15:28:43;;;;;;;779.35;727.83;;;;;;;33.11;23.39;97608.72;5085449;28;20032;-65
2021/05/11 15:31:09;;;;;;;757.95;707.92;;;;;;;32.91;23.59;97601.47;5084598;28;20059;-64
2021/05/11 15:33:34;;;;;;;757.55;707.25;;;;;;;33.37;23.61;97596.44;5085793;28;20032;-64
2021/05/11 15:36:00;;;;;;;730.70;682.20;;;;;;;33.65;23.56;97595.53;5079808;28;20035;-65
2021/05/11 15:38:31;;;;;;;726.67;678.33;;;;;;;34.71;22.29;97608.00;5082085;28;20289;-65